Terminal Aerodrome Forecast
Issued by NWS

Home | Current Version | Previous Version | Text Only | Print | Product List | Glossary On
Versions: 1 2 3 4 5 6 7 8 9 10 11 12 13 14 15 16 17 18 19
000
FTPA31 PHFO 301836 AAA
TAFHTO
TAF AMD
PHTO 301836Z 3019/3118 24004KT P6SM VCSH SCT025 BKN045 OVC060
     FM302200 12010KT P6SM VCSH FEW030 BKN050 OVC070
     FM310600 24004KT P6SM VCSH FEW025 BKN045 OVC060=

USA.gov is the U.S. government's official web portal to all federal, state and local government web resources and services.